Time;durP1;ratioP1;P1;durP2;ratioP2;P2;SDS_P1;SDS_P2;PMS_P1;PMS_P2;Temp;Humidity;BMP_temperature;BMP_pressure;BME280_temperature;BME280_humidity;BME280_pressure;Samples;Min_cycle;Max_cycle;Signal;HPM_P1;HPM_P2
2020/12/13 00:01:26;;;;;;;0.80;0.70;;;9.40;99.90;;;;;;5013267;28;20380;-78
2020/12/13 00:03:51;;;;;;;0.60;0.45;;;9.10;99.90;;;;;;5012473;28;20404;-77
2020/12/13 00:06:17;;;;;;;0.63;0.50;;;7.70;99.90;;;;;;5012838;28;20888;-77
2020/12/13 00:08:43;;;;;;;0.55;0.40;;;9.80;99.90;;;;;;5012430;28;20463;-77
2020/12/13 00:11:08;;;;;;;0.70;0.40;;;7.80;99.90;;;;;;5012865;28;20391;-77
2020/12/13 00:13:34;;;;;;;0.90;0.50;;;8.80;99.90;;;;;;5012277;28;20395;-78
2020/12/13 00:15:59;;;;;;;0.50;0.35;;;8.00;99.90;;;;;;5013009;28;20428;-78
2020/12/13 00:18:25;;;;;;;0.60;0.40;;;7.80;99.90;;;;;;5012522;28;20477;-79
2020/12/13 00:20:51;;;;;;;0.60;0.40;;;7.90;99.90;;;;;;5011726;28;20804;-77
2020/12/13 00:23:16;;;;;;;0.50;0.40;;;9.60;99.90;;;;;;5012396;28;20496;-77
2020/12/13 00:25:42;;;;;;;0.80;0.50;;;7.90;99.90;;;;;;5011292;28;20396;-78
2020/12/13 00:28:08;;;;;;;0.50;0.38;;;8.00;99.90;;;;;;5012306;28;20432;-77
2020/12/13 00:30:33;;;;;;;0.80;0.40;;;7.90;99.90;;;;;;5006761;28;20477;-77
2020/12/13 00:32:59;;;;;;;0.45;0.40;;;8.50;99.90;;;;;;4992447;28;20398;-77
2020/12/13 00:35:24;;;;;;;0.90;0.50;;;7.80;99.90;;;;;;4992522;28;20385;-77
2020/12/13 00:37:51;;;;;;;1.20;0.60;;;8.40;99.90;;;;;;4991515;28;20387;-77
2020/12/13 00:40:17;;;;;;;0.80;0.40;;;9.20;99.90;;;;;;4992132;28;20474;-77
2020/12/13 00:42:43;;;;;;;0.60;0.40;;;8.60;99.90;;;;;;4991381;28;20494;-77
2020/12/13 00:45:08;;;;;;;1.20;0.50;;;8.20;99.90;;;;;;4992460;28;20926;-77
2020/12/13 00:47:34;;;;;;;0.70;0.60;;;7.90;99.90;;;;;;4991791;28;20390;-77
2020/12/13 00:50:00;;;;;;;0.80;0.50;;;8.60;99.90;;;;;;4992365;28;20378;-77
2020/12/13 00:52:25;;;;;;;0.77;0.50;;;9.30;99.90;;;;;;4991057;28;20449;-77
2020/12/13 00:54:51;;;;;;;0.80;0.43;;;8.10;99.90;;;;;;4991005;28;20394;-74
2020/12/13 00:57:16;;;;;;;0.80;0.33;;;8.40;99.90;;;;;;4991026;28;20818;-74
2020/12/13 00:59:42;;;;;;;0.50;0.40;;;8.80;99.90;;;;;;4990115;28;20409;-77
2020/12/13 01:02:08;;;;;;;0.50;0.40;;;8.00;99.90;;;;;;4990660;28;20480;-75
2020/12/13 01:04:34;;;;;;;0.80;0.40;;;8.50;99.90;;;;;;4991155;28;20473;-76
2020/12/13 01:07:05;;;;;;;0.60;0.40;;;7.90;99.90;;;;;;4991583;28;20394;-75
2020/12/13 01:09:31;;;;;;;0.50;0.40;;;7.90;99.90;;;;;;4989949;28;20386;-78
2020/12/13 01:11:57;;;;;;;0.57;0.35;;;8.00;99.90;;;;;;4991778;28;20744;-74
2020/12/13 01:14:24;;;;;;;1.05;0.50;;;7.70;99.90;;;;;;4990704;28;20844;-75
2020/12/13 01:16:51;;;;;;;0.60;0.30;;;7.80;99.90;;;;;;4990795;28;20959;-76
2020/12/13 01:19:17;;;;;;;0.63;0.43;;;8.80;99.90;;;;;;4991804;28;20445;-75
2020/12/13 01:21:43;;;;;;;0.60;0.50;;;8.60;99.90;;;;;;4990970;28;20767;-75
2020/12/13 01:24:08;;;;;;;1.00;0.50;;;7.80;99.90;;;;;;4991392;28;20426;-75
2020/12/13 01:26:37;;;;;;;0.47;0.43;;;8.00;99.90;;;;;;4990488;28;20468;-76
2020/12/13 01:29:03;;;;;;;0.80;0.70;;;8.00;99.90;;;;;;4991433;28;20407;-75
2020/12/13 01:31:28;;;;;;;1.70;0.63;;;9.00;99.90;;;;;;5003372;28;20910;-75
2020/12/13 01:33:54;;;;;;;0.60;0.50;;;7.80;99.90;;;;;;5010442;28;20377;-76
2020/12/13 01:36:23;;;;;;;0.70;0.60;;;8.10;99.90;;;;;;5011182;28;20452;-75
2020/12/13 01:38:49;;;;;;;0.90;0.60;;;7.70;99.90;;;;;;5010446;28;20391;-76
2020/12/13 01:41:16;;;;;;;0.80;0.60;;;7.80;99.90;;;;;;5011017;28;20385;-75
2020/12/13 01:43:57;;;;;;;0.90;0.70;;;7.80;99.90;;;;;;5010005;28;20831;-76
2020/12/13 01:46:24;;;;;;;0.63;0.60;;;7.80;99.90;;;;;;5009742;28;20455;-76
2020/12/13 01:49:00;;;;;;;0.60;0.50;;;7.90;99.90;;;;;;5010312;28;20388;-75
2020/12/13 01:51:39;;;;;;;0.50;0.50;;;8.00;99.90;;;;;;5011072;28;20698;-75
2020/12/13 01:54:10;;;;;;;0.90;0.50;;;7.90;99.90;;;;;;5010066;28;20389;-76
2020/12/13 01:56:37;;;;;;;0.77;0.68;;;8.00;99.90;;;;;;5010328;28;20384;-78
2020/12/13 01:59:03;;;;;;;0.70;0.60;;;7.80;99.90;;;;;;5010731;28;20392;-77
2020/12/13 02:01:34;;;;;;;0.88;0.70;;;7.90;99.90;;;;;;5010659;28;20377;-76
2020/12/13 02:04:03;;;;;;;0.47;0.40;;;8.90;99.90;;;;;;5009494;28;20515;-75
2020/12/13 02:06:31;;;;;;;1.40;0.80;;;8.30;99.90;;;;;;5010560;28;20793;-74
2020/12/13 02:08:57;;;;;;;1.08;0.60;;;7.70;99.90;;;;;;5014043;28;20861;-75
2020/12/13 02:11:22;;;;;;;1.10;0.63;;;7.60;99.90;;;;;;5013449;28;20396;-74
2020/12/13 02:13:50;;;;;;;1.53;0.73;;;7.60;99.90;;;;;;5013993;28;20477;-75
2020/12/13 02:16:17;;;;;;;0.60;0.50;;;8.00;99.90;;;;;;5014595;28;20479;-76
2020/12/13 02:18:44;;;;;;;0.90;0.70;;;7.80;99.90;;;;;;5013899;28;20392;-76
2020/12/13 02:21:10;;;;;;;1.10;0.50;;;7.80;99.90;;;;;;5014623;28;20395;-76
2020/12/13 02:23:38;;;;;;;0.70;0.60;;;9.20;99.90;;;;;;5013822;28;20407;-79
2020/12/13 02:26:12;;;;;;;0.80;0.60;;;7.60;99.90;;;;;;5014227;28;20482;-76
2020/12/13 02:28:38;;;;;;;0.95;0.80;;;7.60;99.90;;;;;;5013624;28;20397;-77
2020/12/13 02:31:05;;;;;;;0.90;0.70;;;7.60;99.90;;;;;;5005701;28;20390;-75
2020/12/13 02:33:32;;;;;;;0.80;0.60;;;7.60;99.90;;;;;;4994752;28;20402;-76
2020/12/13 02:35:58;;;;;;;1.20;0.77;;;7.70;99.90;;;;;;4992795;28;20457;-75
2020/12/13 02:38:25;;;;;;;0.60;0.50;;;7.40;99.90;;;;;;4994426;28;20743;-75
2020/12/13 02:40:51;;;;;;;1.15;0.60;;;8.20;99.90;;;;;;4993883;28;20386;-76
2020/12/13 02:43:16;;;;;;;0.80;0.70;;;7.70;99.90;;;;;;4994624;28;20429;-76
2020/12/13 02:45:42;;;;;;;0.90;0.70;;;8.40;99.90;;;;;;4993804;28;20385;-76
2020/12/13 02:48:08;;;;;;;0.70;0.60;;;8.30;99.90;;;;;;4993262;28;20401;-76
2020/12/13 02:50:34;;;;;;;0.80;0.60;;;7.80;99.90;;;;;;4994892;28;20865;-78
2020/12/13 02:53:02;;;;;;;1.60;0.60;;;7.90;99.90;;;;;;4994180;28;20399;-78
2020/12/13 02:55:28;;;;;;;1.10;0.70;;;7.60;99.90;;;;;;4994609;28;20394;-77
2020/12/13 02:57:53;;;;;;;0.80;0.80;;;8.00;99.90;;;;;;4993804;28;20399;-77
2020/12/13 03:00:19;;;;;;;0.70;0.60;;;8.70;99.90;;;;;;4994307;28;20386;-78
2020/12/13 03:02:45;;;;;;;1.10;0.70;;;8.10;99.90;;;;;;4993294;28;20437;-78
2020/12/13 03:05:10;;;;;;;0.60;0.60;;;7.70;99.90;;;;;;4994405;28;20393;-78
2020/12/13 03:07:37;;;;;;;0.82;0.70;;;7.80;99.90;;;;;;4993239;28;20890;-80
2020/12/13 03:10:03;;;;;;;1.23;0.73;;;7.60;99.90;;;;;;4994245;28;20473;-77
2020/12/13 03:12:29;;;;;;;0.70;0.70;;;9.40;99.90;;;;;;4994092;28;20398;-76
2020/12/13 03:14:55;;;;;;;1.52;0.63;;;9.10;99.90;;;;;;4993397;28;20397;-78
2020/12/13 03:17:21;;;;;;;1.20;0.70;;;7.60;99.90;;;;;;4993839;28;20382;-77
2020/12/13 03:19:47;;;;;;;1.50;0.70;;;6.70;99.90;;;;;;4992218;28;20455;-77
2020/12/13 03:22:13;;;;;;;0.63;0.50;;;8.20;99.90;;;;;;4993439;28;20422;-77
2020/12/13 03:24:38;;;;;;;0.70;0.60;;;8.10;99.90;;;;;;4993426;28;20394;-77
2020/12/13 03:27:04;;;;;;;0.77;0.60;;;7.60;99.90;;;;;;4993125;28;20414;-76
2020/12/13 03:29:30;;;;;;;0.70;0.70;;;7.50;99.90;;;;;;4993781;28;20391;-75
2020/12/13 03:31:56;;;;;;;1.70;0.63;;;7.50;99.90;;;;;;5007173;28;20408;-76
2020/12/13 03:34:22;;;;;;;1.20;0.57;;;9.10;99.90;;;;;;5012917;28;20404;-77
2020/12/13 03:36:59;;;;;;;0.60;0.60;;;7.50;99.90;;;;;;5012443;28;20435;-76
2020/12/13 03:39:24;;;;;;;0.80;0.70;;;7.70;99.90;;;;;;5012903;28;20385;-76
2020/12/13 03:41:50;;;;;;;0.50;0.50;;;7.50;99.90;;;;;;5012001;28;20438;-76
2020/12/13 03:44:15;;;;;;;0.50;0.50;;;7.60;99.90;;;;;;5012931;28;20425;-77
2020/12/13 03:46:41;;;;;;;0.70;0.70;;;7.60;99.90;;;;;;5012049;28;20400;-78
2020/12/13 03:49:07;;;;;;;0.70;0.50;;;7.20;99.90;;;;;;5012804;28;20428;-76
2020/12/13 03:51:33;;;;;;;0.90;0.80;;;7.80;99.90;;;;;;5012955;28;20380;-77
2020/12/13 03:53:58;;;;;;;0.70;0.63;;;7.20;99.90;;;;;;5011906;28;20385;-76
2020/12/13 03:56:24;;;;;;;0.50;0.50;;;7.40;99.90;;;;;;5012992;28;20380;-76
2020/12/13 03:58:50;;;;;;;0.50;0.40;;;7.40;99.90;;;;;;5011474;28;20401;-77
2020/12/13 04:01:15;;;;;;;0.70;0.60;;;7.80;99.90;;;;;;5011525;28;20401;-77
2020/12/13 04:03:41;;;;;;;1.65;0.45;;;7.60;99.90;;;;;;5011959;28;20424;-79
2020/12/13 04:06:07;;;;;;;0.70;0.50;;;7.60;99.90;;;;;;5012195;28;20904;-77
2020/12/13 04:08:32;;;;;;;0.68;0.50;;;7.20;99.90;;;;;;5012361;28;20377;-78
2020/12/13 04:10:58;;;;;;;0.60;0.50;;;8.10;99.90;;;;;;5011760;28;20397;-76
2020/12/13 04:13:24;;;;;;;0.90;0.70;;;8.50;99.90;;;;;;5011286;28;20389;-76
2020/12/13 04:15:49;;;;;;;1.90;0.63;;;8.30;99.90;;;;;;5010476;28;20397;-77
2020/12/13 04:18:15;;;;;;;1.02;0.70;;;7.80;99.90;;;;;;5011141;28;20389;-77
2020/12/13 04:20:41;;;;;;;1.20;0.57;;;7.40;99.90;;;;;;5011875;28;20391;-79
2020/12/13 04:23:06;;;;;;;1.15;0.40;;;7.30;99.90;;;;;;5011532;28;20409;-76
2020/12/13 04:25:32;;;;;;;1.05;0.70;;;7.20;99.90;;;;;;5012373;28;20396;-77
2020/12/13 04:27:57;;;;;;;0.70;0.40;;;8.50;99.90;;;;;;5011147;28;20404;-77
2020/12/13 04:30:23;;;;;;;0.50;0.47;;;7.30;99.90;;;;;;5008956;28;20522;-77
2020/12/13 04:32:49;;;;;;;0.90;0.50;;;8.50;99.90;;;;;;4992085;28;20433;-77
2020/12/13 04:35:15;;;;;;;2.40;0.50;;;7.50;99.90;;;;;;4992361;28;20480;-77
2020/12/13 04:37:40;;;;;;;1.10;0.70;;;8.10;99.90;;;;;;4992428;28;20389;-79
2020/12/13 04:40:06;;;;;;;0.57;0.40;;;6.20;99.90;;;;;;4990222;28;20405;-77
2020/12/13 04:42:36;;;;;;;0.90;0.80;;;7.10;99.90;;;;;;4992442;28;20414;-76
2020/12/13 04:45:06;;;;;;;0.93;0.77;;;8.80;99.90;;;;;;4991336;28;21055;-76
2020/12/13 04:47:33;;;;;;;0.60;0.50;;;7.40;99.90;;;;;;4992359;28;20382;-76
2020/12/13 04:50:03;;;;;;;0.50;0.40;;;7.50;99.90;;;;;;4991387;28;20391;-77
2020/12/13 04:52:29;;;;;;;0.60;0.40;;;7.60;99.90;;;;;;4992558;28;20831;-77
2020/12/13 04:54:55;;;;;;;0.80;0.40;;;7.50;99.90;;;;;;4991316;28;20437;-76
2020/12/13 04:57:21;;;;;;;0.60;0.50;;;8.20;99.90;;;;;;4990772;28;20403;-75
2020/12/13 04:59:48;;;;;;;0.60;0.60;;;7.60;99.90;;;;;;4991149;28;20397;-79
2020/12/13 05:02:15;;;;;;;1.20;0.60;;;7.50;99.90;;;;;;4992107;28;20386;-78
2020/12/13 05:04:42;;;;;;;0.60;0.50;;;7.60;99.90;;;;;;4992112;28;20457;-76
2020/12/13 05:07:08;;;;;;;0.80;0.57;;;7.70;99.90;;;;;;4991590;28;20386;-77
2020/12/13 05:09:34;;;;;;;0.90;0.52;;;8.30;99.90;;;;;;4992221;28;20429;-77
2020/12/13 05:12:00;;;;;;;0.73;0.73;;;8.90;99.90;;;;;;4990079;28;20395;-77
2020/12/13 05:14:27;;;;;;;0.80;0.68;;;8.70;99.90;;;;;;4992103;28;20445;-75
2020/12/13 05:17:13;;;;;;;0.90;0.70;;;7.80;99.90;;;;;;4991378;28;20410;-75
2020/12/13 05:19:41;;;;;;;1.27;0.80;;;8.70;99.90;;;;;;4992091;28;20434;-75
2020/12/13 05:22:07;;;;;;;0.68;0.60;;;7.60;99.90;;;;;;4991079;28;20405;-75
2020/12/13 05:24:34;;;;;;;1.67;0.60;;;8.00;99.90;;;;;;4991574;28;20673;-75
2020/12/13 05:27:01;;;;;;;0.90;0.70;;;7.50;99.90;;;;;;4990845;28;20876;-74
2020/12/13 05:29:29;;;;;;;0.70;0.70;;;7.70;99.90;;;;;;4990541;28;20489;-75
2020/12/13 05:32:18;;;;;;;0.77;0.70;;;7.50;99.90;;;;;;5005168;28;20750;-76
2020/12/13 05:34:46;;;;;;;1.25;1.02;;;7.50;99.90;;;;;;5011116;28;20392;-79
2020/12/13 05:37:17;;;;;;;0.90;0.80;;;8.10;99.90;;;;;;5009920;28;20413;-76
2020/12/13 05:39:51;;;;;;;0.80;0.80;;;8.40;99.90;;;;;;5011350;28;20392;-77
2020/12/13 05:42:34;;;;;;;1.00;0.90;;;7.40;99.90;;;;;;5010672;28;20416;-76
2020/12/13 05:48:02;;;;;;;1.05;0.95;;;7.70;99.90;;;;;;5011294;28;20393;-75
2020/12/13 05:52:52;;;;;;;1.30;1.17;;;8.00;99.90;;;;;;5010602;28;20427;-76
2020/12/13 05:55:18;;;;;;;1.40;1.20;;;7.80;99.90;;;;;;5011159;28;20785;-74
2020/12/13 05:57:48;;;;;;;0.93;0.93;;;8.10;99.90;;;;;;5011226;28;20450;-75
2020/12/13 06:00:18;;;;;;;1.17;1.08;;;7.30;99.90;;;;;;5010809;28;20447;-75
2020/12/13 06:02:45;;;;;;;1.02;1.00;;;7.40;99.90;;;;;;5010996;28;20409;-77
2020/12/13 06:05:15;;;;;;;1.83;1.50;;;8.30;99.90;;;;;;5010767;28;20392;-75
2020/12/13 06:07:49;;;;;;;1.30;1.20;;;7.30;99.90;;;;;;5011115;28;20431;-77
2020/12/13 06:10:26;;;;;;;2.47;1.77;;;8.00;99.90;;;;;;5011117;28;20430;-75
2020/12/13 06:13:02;;;;;;;2.10;1.73;;;8.20;99.90;;;;;;5003940;28;20444;-76
2020/12/13 06:15:30;;;;;;;1.70;1.60;;;7.20;99.90;;;;;;4998841;28;20398;-76
2020/12/13 06:17:55;;;;;;;2.10;1.63;;;7.20;99.90;;;;;;4988980;28;20490;-76
2020/12/13 06:20:22;;;;;;;1.57;1.47;;;7.10;99.90;;;;;;4990249;28;20386;-75
2020/12/13 06:22:50;;;;;;;3.03;1.98;;;7.20;99.90;;;;;;4993799;28;20512;-79
2020/12/13 06:25:17;;;;;;;2.38;1.50;;;8.30;99.90;;;;;;4991693;28;20379;-76
2020/12/13 06:27:44;;;;;;;5.80;1.90;;;8.30;99.90;;;;;;4988201;28;20520;-77
2020/12/13 06:30:10;;;;;;;1.55;1.45;;;7.00;99.90;;;;;;4992004;28;20400;-77
2020/12/13 06:32:43;;;;;;;2.42;1.88;;;8.40;99.90;;;;;;4994455;28;20481;-78
2020/12/13 06:35:09;;;;;;;3.72;1.40;;;7.80;99.90;;;;;;4991159;28;20555;-78
2020/12/13 06:37:37;;;;;;;5.35;1.77;;;6.70;99.90;;;;;;4996386;28;20407;-79
2020/12/13 06:40:09;;;;;;;1.60;1.40;;;6.90;99.90;;;;;;4991128;28;20385;-78
2020/12/13 06:42:40;;;;;;;1.60;1.40;;;7.10;99.90;;;;;;4992352;28;20469;-76
2020/12/13 06:45:11;;;;;;;2.03;1.33;;;6.80;99.90;;;;;;4988924;28;20627;-76
2020/12/13 06:47:39;;;;;;;2.15;1.55;;;7.50;99.90;;;;;;4995542;28;20428;-76
2020/12/13 06:50:10;;;;;;;2.30;1.77;;;7.10;99.90;;;;;;4992909;28;20526;-77
2020/12/13 06:52:36;;;;;;;1.90;1.05;;;5.90;99.90;;;;;;4991273;28;20397;-78
2020/12/13 06:55:06;;;;;;;2.43;1.20;;;6.90;99.90;;;;;;4997300;28;20547;-79
2020/12/13 06:57:34;;;;;;;2.30;0.98;;;7.20;99.90;;;;;;4997324;28;20414;-76
2020/12/13 07:00:09;;;;;;;1.30;1.17;;;6.90;99.90;;;;;;4992771;28;20391;-77
2020/12/13 07:03:01;;;;;;;1.70;1.00;;;6.80;99.90;;;;;;4997061;28;20657;-76
2020/12/13 07:05:46;;;;;;;2.50;1.10;;;7.00;99.90;;;;;;4994310;28;20407;-76
2020/12/13 07:08:17;;;;;;;3.08;1.10;;;6.90;99.90;;;;;;4998560;28;20419;-78
2020/12/13 07:10:50;;;;;;;1.92;1.17;;;7.40;99.90;;;;;;4996634;28;20413;-75
2020/12/13 07:13:20;;;;;;;1.90;0.90;;;7.30;99.90;;;;;;4992704;28;20425;-76
2020/12/13 07:15:58;;;;;;;2.50;1.20;;;9.00;99.90;;;;;;4992727;28;20402;-76
2020/12/13 07:18:25;;;;;;;1.77;0.82;;;6.90;99.90;;;;;;4997113;28;20390;-76
2020/12/13 07:20:51;;;;;;;1.38;1.10;;;7.40;99.90;;;;;;4993821;28;20424;-78
2020/12/13 07:23:16;;;;;;;2.20;1.20;;;7.20;99.90;;;;;;4995293;28;20520;-76
2020/12/13 07:25:42;;;;;;;3.55;1.33;;;7.40;99.90;;;;;;4998206;28;20395;-78
2020/12/13 07:28:08;;;;;;;2.20;1.02;;;7.10;99.90;;;;;;4996551;28;20400;-76
2020/12/13 07:30:37;;;;;;;1.50;1.17;;;7.40;99.90;;;;;;4992391;28;21173;-76
2020/12/13 07:33:04;;;;;;;2.60;1.30;;;7.20;99.90;;;;;;4994854;28;20425;-77
2020/12/13 07:35:30;;;;;;;3.38;1.20;;;6.90;99.90;;;;;;4994940;28;20386;-76
2020/12/13 07:37:57;;;;;;;2.57;0.97;;;6.80;99.90;;;;;;4992985;28;20948;-79
2020/12/13 07:40:22;;;;;;;2.40;1.00;;;6.90;99.90;;;;;;4994725;28;20395;-74
2020/12/13 07:42:55;;;;;;;3.83;1.50;;;8.50;99.90;;;;;;4995640;28;20472;-75
2020/12/13 07:45:21;;;;;;;1.40;1.02;;;6.60;99.90;;;;;;4995505;28;20478;-76
2020/12/13 07:48:00;;;;;;;1.90;1.00;;;7.00;99.90;;;;;;4993841;28;20501;-78
2020/12/13 07:50:45;;;;;;;2.08;1.00;;;7.30;99.90;;;;;;4993728;28;20400;-78
2020/12/13 07:53:11;;;;;;;1.17;0.88;;;6.90;99.90;;;;;;4998168;28;20396;-78
2020/12/13 07:55:43;;;;;;;3.10;1.00;;;7.30;99.90;;;;;;4994795;28;21017;-74
2020/12/13 07:58:08;;;;;;;1.50;0.80;;;7.00;99.90;;;;;;4994458;28;20404;-76
2020/12/13 08:00:35;;;;;;;1.90;1.13;;;4.80;99.90;;;;;;4995728;28;20395;-77
2020/12/13 08:03:01;;;;;;;1.50;0.93;;;6.70;99.90;;;;;;4994810;28;20422;-76
2020/12/13 08:05:28;;;;;;;1.37;1.00;;;7.10;99.90;;;;;;4993107;28;20510;-76
2020/12/13 08:08:00;;;;;;;3.67;1.05;;;6.40;99.90;;;;;;4998573;28;20498;-80
2020/12/13 08:10:30;;;;;;;2.10;1.20;;;6.80;99.90;;;;;;4996101;28;20392;-75
2020/12/13 08:12:56;;;;;;;2.22;1.00;;;6.40;99.90;;;;;;4994217;28;20417;-78
2020/12/13 08:15:22;;;;;;;2.90;1.20;;;;;;;;;;4995206;28;20482;-76
2020/12/13 08:18:12;;;;;;;0.70;0.68;;;6.60;99.90;;;;;;4992510;28;20728;-77
2020/12/13 08:20:40;;;;;;;1.80;0.93;;;7.80;99.90;;;;;;4991113;28;20392;-76
2020/12/13 08:23:08;;;;;;;1.55;0.90;;;8.00;99.90;;;;;;4992235;28;20422;-76
2020/12/13 08:25:37;;;;;;;2.40;0.90;;;7.20;99.90;;;;;;4996576;28;20397;-76
2020/12/13 08:28:04;;;;;;;0.60;0.50;;;7.40;99.90;;;;;;4991698;28;20840;-77
2020/12/13 08:30:30;;;;;;;0.95;0.70;;;7.50;99.90;;;;;;4988681;28;20869;-76
2020/12/13 08:32:58;;;;;;;1.42;0.80;;;8.20;99.90;;;;;;4992586;28;20400;-79
2020/12/13 08:35:27;;;;;;;0.90;0.70;;;7.60;99.90;;;;;;4993916;28;20447;-74
2020/12/13 08:38:02;;;;;;;2.10;0.80;;;7.00;99.90;;;;;;4991243;28;20473;-74
2020/12/13 08:40:39;;;;;;;0.60;0.60;;;7.50;99.90;;;;;;4988681;28;20395;-75
2020/12/13 08:43:05;;;;;;;3.10;0.70;;;7.50;99.90;;;;;;4995230;28;20416;-77
2020/12/13 08:45:32;;;;;;;1.70;0.93;;;7.40;99.90;;;;;;4995108;28;20388;-76
2020/12/13 08:48:04;;;;;;;1.50;0.80;;;7.80;99.90;;;;;;4992833;28;20384;-79
2020/12/13 08:50:39;;;;;;;2.33;0.80;;;7.10;99.90;;;;;;4988818;28;20491;-76
2020/12/13 08:53:22;;;;;;;1.27;0.57;;;8.70;99.90;;;;;;4995818;28;20393;-76
2020/12/13 08:56:06;;;;;;;1.70;1.00;;;7.60;99.90;;;;;;4996032;28;20385;-77
2020/12/13 08:58:57;;;;;;;1.40;0.70;;;6.40;99.90;;;;;;4993683;28;20436;-77
2020/12/13 09:01:26;;;;;;;1.30;0.70;;;6.70;99.90;;;;;;4990612;28;20408;-78
2020/12/13 09:03:53;;;;;;;3.25;0.90;;;7.00;99.90;;;;;;4993791;28;20431;-80
2020/12/13 09:06:25;;;;;;;2.20;0.80;;;6.50;99.90;;;;;;4990921;28;20483;-79
2020/12/13 09:08:50;;;;;;;0.95;0.60;;;6.60;99.90;;;;;;4992735;28;20401;-75
2020/12/13 09:11:32;;;;;;;0.93;0.70;;;7.50;99.90;;;;;;4989364;28;20672;-77
2020/12/13 09:13:58;;;;;;;0.90;0.80;;;6.80;99.90;;;;;;4993410;28;20404;-79
2020/12/13 09:16:25;;;;;;;1.88;0.80;;;6.70;99.90;;;;;;4995227;28;20401;-78
2020/12/13 09:19:07;;;;;;;0.93;0.50;;;7.10;99.90;;;;;;4993401;28;20434;-79
2020/12/13 09:21:46;;;;;;;1.20;0.65;;;6.60;99.90;;;;;;4991394;28;20399;-78
2020/12/13 09:24:12;;;;;;;0.98;0.70;;;6.70;99.90;;;;;;4993936;28;20539;-77
2020/12/13 09:26:55;;;;;;;0.77;0.70;;;7.70;99.90;;;;;;4995401;28;20747;-79
2020/12/13 09:29:21;;;;;;;0.80;0.70;;;6.70;99.90;;;;;;4990699;28;20394;-76
2020/12/13 09:31:46;;;;;;;1.00;0.60;;;8.20;99.90;;;;;;4991525;28;20454;-76
2020/12/13 09:34:12;;;;;;;0.80;0.60;;;7.10;99.90;;;;;;4993291;28;21039;-75
2020/12/13 09:36:38;;;;;;;0.60;0.50;;;5.70;99.90;;;;;;4992321;28;20424;-75
2020/12/13 09:39:03;;;;;;;2.57;0.90;;;7.90;99.90;;;;;;4991186;28;20424;-78
2020/12/13 09:41:29;;;;;;;2.10;0.60;;;8.60;99.90;;;;;;4992135;28;20391;-76
2020/12/13 09:43:54;;;;;;;0.77;0.50;;;7.00;99.90;;;;;;4995892;28;20425;-77
2020/12/13 09:46:20;;;;;;;0.70;0.70;;;7.20;99.90;;;;;;4986128;28;20412;-75
2020/12/13 09:48:46;;;;;;;1.50;0.80;;;7.00;99.90;;;;;;4994040;28;20389;-77
2020/12/13 09:51:17;;;;;;;0.80;0.60;;;7.20;99.90;;;;;;4987545;28;20942;-75
2020/12/13 09:53:43;;;;;;;1.10;0.70;;;7.30;99.90;;;;;;4991523;28;20409;-76
2020/12/13 09:56:09;;;;;;;0.93;0.80;;;7.10;99.90;;;;;;4992626;28;20401;-77
2020/12/13 09:58:34;;;;;;;0.80;0.70;;;7.50;99.90;;;;;;4994443;28;20402;-74
2020/12/13 10:01:00;;;;;;;1.20;0.47;;;7.30;99.90;;;;;;4988565;28;20884;-77
2020/12/13 10:03:25;;;;;;;1.30;1.00;;;7.00;99.90;;;;;;4991749;28;20855;-75
2020/12/13 10:09:07;;;;;;;2.23;0.90;;;6.80;99.90;;;;;;5018386;28;20397;-74
2020/12/13 10:11:34;;;;;;;1.98;0.70;;;7.90;99.90;;;;;;5009294;28;20385;-74
2020/12/13 10:14:01;;;;;;;1.38;1.00;;;7.20;99.90;;;;;;5009633;28;20396;-77
2020/12/13 10:16:27;;;;;;;1.15;0.60;;;7.80;99.90;;;;;;5009125;28;20463;-75
2020/12/13 10:18:54;;;;;;;0.90;0.70;;;6.60;99.90;;;;;;5009637;28;20381;-74
2020/12/13 10:21:24;;;;;;;1.73;1.02;;;8.70;99.90;;;;;;5008785;28;20476;-75
2020/12/13 10:23:50;;;;;;;1.42;1.20;;;6.70;99.90;;;;;;5009817;28;20416;-75
2020/12/13 10:26:16;;;;;;;1.20;1.02;;;8.90;99.90;;;;;;5008748;28;20468;-76
2020/12/13 10:28:42;;;;;;;2.00;0.75;;;7.00;99.90;;;;;;5011386;28;20440;-74
2020/12/13 10:31:10;;;;;;;1.33;0.83;;;7.40;99.90;;;;;;5012504;28;20412;-75
2020/12/13 10:33:40;;;;;;;2.30;1.00;;;7.40;99.90;;;;;;5013502;28;20392;-74
2020/12/13 10:36:10;;;;;;;2.45;1.00;;;7.00;99.90;;;;;;5012596;28;20385;-76
2020/12/13 10:38:36;;;;;;;2.13;0.95;;;6.90;99.90;;;;;;5013625;28;20455;-74
2020/12/13 10:41:04;;;;;;;1.48;0.93;;;6.90;99.90;;;;;;5011684;28;20433;-76
2020/12/13 10:43:30;;;;;;;1.67;0.70;;;7.10;99.90;;;;;;5013101;28;20474;-74
2020/12/13 10:45:56;;;;;;;1.60;1.10;;;8.00;99.90;;;;;;5013444;28;20393;-73
2020/12/13 10:48:21;;;;;;;2.33;1.00;;;7.30;99.90;;;;;;4999797;28;20438;-73
2020/12/13 10:50:47;;;;;;;2.88;1.00;;;7.30;99.90;;;;;;4997521;28;20414;-76
2020/12/13 10:53:13;;;;;;;1.60;0.70;;;7.60;99.90;;;;;;4994660;28;20391;-74
2020/12/13 10:55:39;;;;;;;1.50;0.63;;;7.90;99.90;;;;;;4996493;28;20476;-73
2020/12/13 10:58:04;;;;;;;5.30;0.80;;;8.10;99.90;;;;;;4995604;28;20457;-79
2020/12/13 11:00:30;;;;;;;1.43;0.90;;;7.80;99.90;;;;;;4997296;28;20709;-75
2020/12/13 11:02:55;;;;;;;1.70;0.70;;;9.70;99.90;;;;;;4995164;28;20463;-77
2020/12/13 11:05:21;;;;;;;1.17;0.80;;;8.60;99.90;;;;;;4977949;28;20399;-74
2020/12/13 11:07:48;;;;;;;1.30;0.70;;;8.40;99.90;;;;;;4998121;28;20379;-76
2020/12/13 11:10:14;;;;;;;2.00;0.98;;;9.50;99.90;;;;;;4995148;28;20477;-75
2020/12/13 11:12:39;;;;;;;3.15;0.60;;;10.20;99.90;;;;;;4992877;28;20438;-76
2020/12/13 11:15:05;;;;;;;1.60;0.60;;;10.10;99.90;;;;;;4994768;28;20373;-78
2020/12/13 11:17:31;;;;;;;2.00;0.60;;;10.40;99.90;;;;;;4995319;28;20400;-74
2020/12/13 11:19:56;;;;;;;2.10;0.80;;;10.80;95.10;;;;;;4992180;28;21485;-75
2020/12/13 11:22:22;;;;;;;1.50;0.70;;;10.80;95.10;;;;;;4992617;28;20384;-75
2020/12/13 11:24:48;;;;;;;0.90;0.60;;;10.70;99.10;;;;;;4997032;28;20761;-74
2020/12/13 11:27:13;;;;;;;3.05;0.90;;;11.20;92.50;;;;;;4989624;28;20411;-75
2020/12/13 11:29:39;;;;;;;2.50;0.68;;;11.70;91.10;;;;;;4996237;28;20418;-75
2020/12/13 11:32:05;;;;;;;1.00;0.63;;;11.10;91.20;;;;;;4993373;28;20405;-77
2020/12/13 11:34:30;;;;;;;2.28;0.70;;;11.20;90.70;;;;;;4992071;28;20481;-77
2020/12/13 11:36:56;;;;;;;1.20;0.80;;;9.50;93.60;;;;;;4997554;28;21308;-76
2020/12/13 11:39:37;;;;;;;2.30;1.00;;;11.00;90.50;;;;;;4993414;28;20839;-74
2020/12/13 11:42:04;;;;;;;2.70;0.70;;;10.80;91.80;;;;;;4988510;28;20507;-75
2020/12/13 11:44:29;;;;;;;1.00;0.60;;;10.60;91.40;;;;;;4995772;28;20461;-75
2020/12/13 11:46:55;;;;;;;0.90;0.77;;;10.70;96.50;;;;;;4996547;28;20424;-76
2020/12/13 11:49:22;;;;;;;3.17;0.63;;;11.10;91.60;;;;;;4993091;28;21059;-74
2020/12/13 11:51:48;;;;;;;1.67;0.93;;;11.20;89.80;;;;;;4993532;28;20398;-75
2020/12/13 11:54:14;;;;;;;2.28;0.60;;;10.90;90.50;;;;;;4994325;28;20449;-77
2020/12/13 11:56:44;;;;;;;1.25;0.60;;;;;;;;;;4993644;28;20405;-75
2020/12/13 11:59:09;;;;;;;1.35;0.90;;;11.00;91.70;;;;;;4990983;28;20923;-76
2020/12/13 12:01:35;;;;;;;1.80;0.50;;;11.10;92.60;;;;;;4997460;28;20385;-75
2020/12/13 12:04:02;;;;;;;1.95;0.80;;;10.80;91.20;;;;;;4993907;28;20413;-75
2020/12/13 12:06:28;;;;;;;1.63;0.70;;;11.30;91.50;;;;;;4993049;28;21022;-75
2020/12/13 12:08:54;;;;;;;2.58;0.60;;;10.70;94.40;;;;;;4994674;28;20399;-74
2020/12/13 12:11:21;;;;;;;0.80;0.65;;;11.10;94.60;;;;;;4995617;28;20395;-73
2020/12/13 12:13:47;;;;;;;3.08;0.70;;;10.80;93.80;;;;;;4991928;28;20396;-77
2020/12/13 12:16:13;;;;;;;3.00;0.43;;;11.20;88.40;;;;;;4992285;28;20397;-75
2020/12/13 12:18:39;;;;;;;2.72;0.60;;;10.80;89.10;;;;;;4994907;28;20427;-74
2020/12/13 12:21:16;;;;;;;1.73;0.57;;;;;;;;;;4991473;28;20481;-74
2020/12/13 12:23:42;;;;;;;1.50;0.60;;;10.00;90.30;;;;;;4991453;28;20430;-73
2020/12/13 12:26:08;;;;;;;2.72;0.50;;;10.20;92.70;;;;;;4992985;28;20853;-77
2020/12/13 12:28:34;;;;;;;2.30;0.55;;;9.80;92.40;;;;;;4995028;28;20505;-74
2020/12/13 12:31:00;;;;;;;2.17;0.60;;;9.70;98.00;;;;;;4991595;28;21011;-73
2020/12/13 12:33:26;;;;;;;2.13;0.70;;;9.00;93.30;;;;;;4990199;28;20424;-76
2020/12/13 12:35:52;;;;;;;1.23;0.70;;;8.90;94.50;;;;;;4994678;28;20385;-74
2020/12/13 12:38:17;;;;;;;1.20;0.60;;;9.70;96.80;;;;;;4991266;28;20391;-75
2020/12/13 12:40:43;;;;;;;0.80;0.52;;;8.80;96.10;;;;;;4991961;28;20410;-74
2020/12/13 12:43:09;;;;;;;3.10;0.80;;;9.70;96.40;;;;;;4993608;28;20417;-76
2020/12/13 12:45:35;;;;;;;1.50;0.65;;;8.60;96.30;;;;;;4992249;28;20428;-73
2020/12/13 12:48:01;;;;;;;1.27;0.70;;;8.30;98.70;;;;;;4993489;28;20893;-74
2020/12/13 12:50:26;;;;;;;2.57;0.90;;;9.70;98.20;;;;;;4993282;28;20389;-74
2020/12/13 12:52:53;;;;;;;1.90;0.70;;;8.60;97.90;;;;;;4992269;28;20479;-73
2020/12/13 12:55:19;;;;;;;1.55;0.88;;;9.00;99.90;;;;;;4995290;28;20396;-75
2020/12/13 12:57:45;;;;;;;2.33;0.80;;;8.90;96.90;;;;;;4992122;28;20394;-74
2020/12/13 13:02:58;;;;;;;3.50;1.20;;;9.30;95.80;;;;;;4991010;28;20441;-74
2020/12/13 13:05:31;;;;;;;1.20;0.90;;;8.80;97.50;;;;;;4989242;28;20736;-73
2020/12/13 13:07:59;;;;;;;3.50;1.10;;;8.80;97.80;;;;;;4990885;28;20887;-74
2020/12/13 13:10:28;;;;;;;1.85;1.00;;;9.10;97.60;;;;;;4990564;28;20762;-75
2020/12/13 13:12:55;;;;;;;1.10;0.60;;;9.00;99.90;;;;;;4999451;28;20494;-74